Time;durP1;ratioP1;P1;durP2;ratioP2;P2;SDS_P1;SDS_P2;PMS_P1;PMS_P2;Temp;Humidity;BMP_temperature;BMP_pressure;BME280_temperature;BME280_humidity;BME280_pressure;Samples;Min_cycle;Max_cycle;Signal;HPM_P1;HPM_P2
2023/04/13 00:26:00;;;;;;;42.00;21.27;;;4.60;99.90;;;;;;4727016;29;20325;-86
2023/04/13 00:51:22;;;;;;;38.90;21.90;;;5.80;99.90;;;;;;4789589;29;20201;-85
2023/04/13 01:26:13;;;;;;;37.67;21.03;;;5.20;99.90;;;;;;4661690;30;21384;-84
2023/04/13 01:47:14;;;;;;;48.43;26.23;;;4.50;99.90;;;;;;4701130;30;20329;-85
2023/04/13 01:51:34;;;;;;;49.37;28.77;;;4.50;99.90;;;;;;4600890;30;20274;-86
2023/04/13 02:22:13;;;;;;;41.63;25.13;;;3.80;99.90;;;;;;4557263;30;20653;-84
2023/04/13 02:48:04;;;;;;;42.70;23.77;;;3.30;99.90;;;;;;4601085;30;20369;-83
2023/04/13 03:12:44;;;;;;;44.93;24.47;;;3.30;99.90;;;;;;4692192;29;20228;-84
2023/04/13 03:33:20;;;;;;;47.50;25.53;;;2.80;99.90;;;;;;4586495;30;20688;-86
2023/04/13 04:03:27;;;;;;;58.47;33.93;;;3.60;99.90;;;;;;4753946;29;20737;-81
2023/04/13 04:24:21;;;;;;;68.70;41.10;;;5.00;99.90;;;;;;4533214;31;21052;-86
2023/04/13 04:44:02;;;;;;;76.30;44.47;;;5.60;99.90;;;;;;4427785;31;20765;-87
2023/04/13 05:14:21;;;;;;;49.43;30.00;;;7.10;99.90;;;;;;4538375;31;20269;-86
2023/04/13 05:45:23;;;;;;;39.77;26.23;;;8.00;99.90;;;;;;4443915;31;20335;-83
2023/04/13 06:15:25;;;;;;;38.90;24.17;;;9.10;99.90;;;;;;4407278;30;21054;-83
2023/04/13 06:36:10;;;;;;;34.37;20.43;;;10.20;99.90;;;;;;4406942;30;20335;-85
2023/04/13 06:56:37;;;;;;;16.63;13.17;;;10.90;92.30;;;;;;4476234;30;20258;-81
2023/04/13 08:12:39;;;;;;;16.90;13.20;;;13.10;83.50;;;;;;4507095;31;20345;-85
2023/04/13 08:38:05;;;;;;;17.20;13.13;;;13.00;83.00;;;;;;4448462;31;20751;-84
2023/04/13 09:28:16;;;;;;;14.40;10.77;;;13.90;77.90;;;;;;4468903;31;20451;-90
2023/04/13 09:48:26;;;;;;;12.57;10.90;;;14.30;76.70;;;;;;4530618;30;20668;-86
2023/04/13 10:13:52;;;;;;;11.83;10.10;;;14.30;77.80;;;;;;4490690;30;20430;-87
2023/04/13 11:20:07;;;;;;;10.57;7.90;;;15.60;51.60;;;;;;4414960;31;20655;-84
2023/04/13 12:00:58;;;;;;;6.63;5.57;;;15.60;45.50;;;;;;4693770;30;20559;-85
2023/04/13 12:31:25;;;;;;;5.17;4.67;;;16.00;42.10;;;;;;4710333;30;20216;-89
2023/04/13 12:51:42;;;;;;;4.63;4.20;;;16.20;39.80;;;;;;4570965;31;20298;-86
2023/04/13 13:22:04;;;;;;;4.70;4.20;;;16.80;38.10;;;;;;4616577;30;20321;-86
2023/04/13 13:47:26;;;;;;;5.67;4.30;;;17.00;39.50;;;;;;4617445;30;20306;-88
2023/04/13 14:32:10;;;;;;;4.32;3.90;;;19.90;37.00;;;;;;4617819;30;20234;-86
2023/04/13 16:28:18;;;;;;;4.38;4.03;;;19.40;37.70;;;;;;4468977;30;20618;-85
2023/04/13 16:54:06;;;;;;;5.33;4.30;;;15.50;39.40;;;;;;4567065;30;20811;-87
2023/04/13 17:24:15;;;;;;;11.23;9.60;;;14.80;46.10;;;;;;4621948;30;20849;-87
2023/04/13 17:44:55;;;;;;;12.53;9.37;;;13.90;68.60;;;;;;4456732;31;20280;-86
2023/04/13 18:05:25;;;;;;;14.73;10.43;;;14.00;75.20;;;;;;4511849;31;20719;-86
2023/04/13 18:09:44;;;;;;;15.07;10.23;;;13.90;75.90;;;;;;4527100;30;20225;-87
2023/04/13 18:40:51;;;;;;;23.97;13.67;;;13.20;81.10;;;;;;4562371;30;20220;-86
2023/04/13 19:11:14;;;;;;;19.43;14.87;;;12.60;83.80;;;;;;4653044;30;20210;-86
2023/04/13 19:35:58;;;;;;;23.10;17.53;;;11.50;89.70;;;;;;4655202;30;20563;-84
2023/04/13 20:01:21;;;;;;;29.13;20.63;;;11.50;90.70;;;;;;4572299;30;20316;-85
2023/04/13 20:27:24;;;;;;;26.00;19.73;;;11.00;98.20;;;;;;4528364;30;20308;-85
2023/04/13 20:57:33;;;;;;;25.00;16.83;;;10.20;99.90;;;;;;4517785;31;20286;-86
2023/04/13 21:22:59;;;;;;;18.67;14.43;;;10.30;99.90;;;;;;4719848;29;20216;-83
2023/04/13 21:42:51;;;;;;;18.00;14.17;;;10.20;99.90;;;;;;4581102;30;20533;-85
2023/04/13 22:23:52;;;;;;;17.93;13.80;;;9.90;99.90;;;;;;4627014;29;20210;-86
2023/04/13 22:54:27;;;;;;;16.97;12.80;;;9.40;99.90;;;;;;4681608;29;20212;-84
2023/04/13 22:58:49;;;;;;;21.07;13.40;;;9.40;99.90;;;;;;4603040;30;20609;-83
2023/04/13 23:19:34;;;;;;;16.50;12.83;;;9.40;99.90;;;;;;4668848;29;20322;-83
